Time;durP1;ratioP1;P1;durP2;ratioP2;P2;SDS_P1;SDS_P2;PMS_P1;PMS_P2;Temp;Humidity;BMP_temperature;BMP_pressure;BME280_temperature;BME280_humidity;BME280_pressure;Samples;Min_cycle;Max_cycle;Signal;HPM_P1;HPM_P2
2022/06/05 00:01:30;;;;;;;2.20;1.85;;;;;;;16.85;52.78;99629.74;1695056;84;21521;-83
2022/06/05 00:04:29;;;;;;;2.35;1.40;;;;;;;16.85;53.03;99621.77;1695052;84;21153;-82
2022/06/05 00:07:16;;;;;;;1.42;1.32;;;;;;;16.84;52.54;99624.00;1694876;84;21490;-84
2022/06/05 00:09:57;;;;;;;3.27;1.90;;;;;;;16.82;52.58;99633.87;1695073;84;21137;-82
2022/06/05 00:12:39;;;;;;;1.92;1.77;;;;;;;16.82;52.34;99636.05;1694937;84;21106;-83
2022/06/05 00:15:07;;;;;;;4.05;1.80;;;;;;;16.83;52.28;99648.88;1678823;84;21004;-82
2022/06/05 00:17:34;;;;;;;1.92;1.82;;;;;;;16.84;52.43;99633.30;1694951;84;21019;-81
2022/06/05 00:20:00;;;;;;;1.80;1.70;;;;;;;16.84;53.47;99620.02;1694960;84;21067;-82
2022/06/05 00:22:27;;;;;;;2.17;1.67;;;;;;;16.82;52.94;99615.27;1694984;84;21125;-83
2022/06/05 00:24:54;;;;;;;2.30;1.70;;;;;;;16.85;52.77;99613.80;1695145;84;21145;-81
2022/06/05 00:27:32;;;;;;;1.67;1.57;;;;;;;16.84;52.43;99618.69;1694787;84;21122;-82
2022/06/05 00:30:21;;;;;;;2.27;1.75;;;;;;;16.86;52.16;99606.19;1694881;84;21691;-83
2022/06/05 00:32:52;;;;;;;1.42;1.40;;;;;;;16.86;52.09;99597.77;1688624;84;21139;-82
2022/06/05 00:35:21;;;;;;;2.12;1.60;;;;;;;16.87;52.17;99593.30;1675665;85;21646;-83
2022/06/05 00:38:09;;;;;;;3.60;1.50;;;;;;;16.89;51.99;99586.08;1675625;85;21536;-81
2022/06/05 00:41:16;;;;;;;6.20;1.72;;;;;;;16.89;51.82;99584.30;1675677;85;21119;-81
2022/06/05 00:43:43;;;;;;;1.57;1.47;;;;;;;16.92;51.76;99587.71;1675648;85;21016;-82
2022/06/05 00:46:10;;;;;;;1.57;1.45;;;;;;;16.92;51.50;99589.89;1675669;85;21528;-83
2022/06/05 00:48:36;;;;;;;1.75;1.65;;;;;;;16.94;51.58;99592.45;1635467;87;21063;-83
2022/06/05 00:51:03;;;;;;;3.27;1.62;;;;;;;16.95;51.44;99588.38;1614831;87;21559;-82
2022/06/05 00:53:30;;;;;;;1.65;1.40;;;;;;;16.95;51.82;99585.72;1646450;87;21043;-84
2022/06/05 00:55:57;;;;;;;5.17;1.77;;;;;;;16.96;51.61;99582.58;1675607;85;21143;-81
2022/06/05 00:58:24;;;;;;;3.10;1.90;;;;;;;16.97;51.84;99582.97;1636886;87;21851;-82
2022/06/05 01:00:53;;;;;;;1.70;1.60;;;;;;;16.96;51.50;99583.42;1646039;87;21133;-82
2022/06/05 01:03:21;;;;;;;2.15;1.70;;;;;;;16.97;51.47;99582.97;1675594;85;21028;-82
2022/06/05 01:05:47;;;;;;;4.12;1.70;;;;;;;16.97;51.37;99583.82;1635298;87;20996;-80
2022/06/05 01:08:14;;;;;;;2.05;1.70;;;;;;;16.98;51.80;99586.00;1645833;87;21113;-80
2022/06/05 01:11:22;;;;;;;1.50;1.40;;;;;;;16.99;51.92;99579.75;1675647;85;21103;-82
2022/06/05 01:14:18;;;;;;;3.37;2.30;;;;;;;16.99;51.93;99579.27;1675504;85;21079;-82
2022/06/05 01:17:02;;;;;;;1.90;1.57;;;;;;;16.99;51.82;99577.93;1635078;87;21011;-83
2022/06/05 01:19:42;;;;;;;2.15;1.80;;;;;;;16.97;51.85;99578.50;1659254;86;21538;-82
2022/06/05 01:22:33;;;;;;;3.67;1.75;;;;;;;16.96;51.84;99574.13;1635429;87;21098;-83
2022/06/05 01:25:35;;;;;;;3.22;2.05;;;;;;;16.95;51.65;99570.26;1646060;87;21629;-83
2022/06/05 01:28:05;;;;;;;3.27;1.92;;;;;;;16.94;51.51;99570.71;1674994;85;21056;-83
2022/06/05 01:30:35;;;;;;;3.10;2.20;;;;;;;16.94;52.02;99573.37;1634871;87;21000;-82
2022/06/05 01:33:19;;;;;;;3.27;1.92;;;;;;;16.92;51.91;99577.92;1663925;85;21616;-83
2022/06/05 01:35:59;;;;;;;4.28;1.98;;;;;;;16.92;52.15;99578.41;1646759;87;20999;-81
2022/06/05 01:38:49;;;;;;;1.95;1.85;;;;;;;16.92;52.35;99579.26;1676636;85;21126;-81
2022/06/05 01:41:26;;;;;;;2.08;1.90;;;;;;;16.90;52.49;99574.52;1646572;87;21466;-82
2022/06/05 01:43:54;;;;;;;4.85;1.65;;;;;;;16.89;52.14;99576.33;1698642;84;21121;-82
2022/06/05 01:46:33;;;;;;;4.15;2.00;;;;;;;16.89;51.84;99579.44;1646638;87;21042;-83
2022/06/05 01:49:20;;;;;;;1.77;1.67;;;;;;;16.90;51.87;99577.17;1697943;84;21688;-82
2022/06/05 01:52:23;;;;;;;1.75;1.65;;;;;;;16.91;51.90;99573.55;1641405;87;21170;-83
2022/06/05 01:55:07;;;;;;;1.65;1.55;;;;;;;16.92;52.03;99573.09;1669342;85;21189;-82
2022/06/05 01:57:35;;;;;;;1.42;1.32;;;;;;;16.90;51.60;99579.83;1652241;85;21098;-82
2022/06/05 02:00:12;;;;;;;2.35;1.85;;;;;;;16.91;51.69;99570.89;1669785;85;21165;-84
2022/06/05 02:03:12;;;;;;;2.05;1.95;;;;;;;16.92;51.61;99579.26;1669899;85;21050;-83
2022/06/05 02:05:52;;;;;;;3.10;1.70;;;;;;;16.92;51.55;99588.56;1668699;85;21129;-83
2022/06/05 02:08:39;;;;;;;1.40;1.30;;;;;;;16.92;51.44;99581.06;1669607;85;20997;-82
2022/06/05 02:11:24;;;;;;;4.28;1.67;;;;;;;16.92;51.68;99581.91;1669658;85;21616;-82
2022/06/05 02:13:52;;;;;;;;;;;;;;;16.91;51.94;99573.55;1672295;85;21061;-83
2022/06/05 02:16:19;;;;;;;2.27;1.60;;;;;;;16.91;51.70;99561.59;1670078;85;20185;-83
2022/06/05 02:18:45;;;;;;;2.20;1.80;;;;;;;16.92;52.11;99561.14;1669705;85;21122;-82
2022/06/05 02:21:12;;;;;;;1.70;1.60;;;;;;;16.91;52.14;99557.60;1669680;85;21570;-82
2022/06/05 02:23:40;;;;;;;3.90;1.70;;;;;;;16.90;52.11;99554.09;1669754;85;21649;-83
2022/06/05 02:26:08;;;;;;;2.45;1.72;;;;;;;16.91;52.14;99552.28;1669440;85;21138;-83
2022/06/05 02:28:37;;;;;;;2.02;1.50;;;;;;;16.90;52.38;99549.27;1669519;85;21613;-82
2022/06/05 02:31:18;;;;;;;1.80;1.65;;;;;;;16.91;52.21;99546.97;1669469;85;21112;-82
2022/06/05 02:34:13;;;;;;;3.47;1.90;;;;;;;16.92;52.30;99547.36;1666800;85;21054;-82
2022/06/05 02:36:46;;;;;;;3.95;2.00;;;;;;;16.92;52.40;99546.52;1669860;85;21059;-81
2022/06/05 02:39:23;;;;;;;3.12;2.10;;;;;;;16.92;52.13;99554.01;1669791;85;21776;-83
2022/06/05 02:42:07;;;;;;;3.00;2.12;;;;;;;16.94;52.14;99561.41;1669270;85;21082;-81
2022/06/05 02:44:45;;;;;;;2.05;1.92;;;;;;;16.93;52.31;99551.75;1669449;85;21533;-84
2022/06/05 02:47:26;;;;;;;4.67;1.72;;;;;;;16.94;52.48;99553.44;1669176;85;21079;-83
2022/06/05 02:50:10;;;;;;;1.95;1.80;;;;;;;16.95;52.21;99551.66;1669830;85;21102;-84
2022/06/05 02:52:36;;;;;;;3.37;1.75;;;;;;;16.95;52.39;99545.86;1669578;85;21194;-83
2022/06/05 02:55:18;;;;;;;2.08;1.80;;;;;;;16.95;52.28;99545.01;1669753;85;21043;-83
2022/06/05 02:57:46;;;;;;;3.98;1.50;;;;;;;16.96;52.37;99539.57;1669676;85;22245;-82
2022/06/05 03:00:17;;;;;;;1.60;1.50;;;;;;;16.96;52.38;99538.25;1669527;85;21166;-82
2022/06/05 03:05:32;;;;;;;4.65;2.02;;;;;;;16.96;52.44;99534.26;1669871;85;21571;-83
2022/06/05 03:07:59;;;;;;;3.85;1.70;;;;;;;16.97;52.49;99532.48;1669734;85;21609;-82
2022/06/05 03:10:25;;;;;;;4.00;1.65;;;;;;;16.97;52.45;99533.32;1669613;85;21271;-82
2022/06/05 03:12:52;;;;;;;3.77;1.60;;;;;;;16.97;52.46;99528.00;1669642;85;21158;-84
2022/06/05 03:15:19;;;;;;;3.27;1.90;;;;;;;16.98;52.53;99528.85;1669811;85;21508;-82
2022/06/05 03:17:46;;;;;;;2.45;1.50;;;;;;;17.00;52.50;99534.95;1669805;85;21094;-83
2022/06/05 03:20:14;;;;;;;5.22;2.08;;;;;;;17.00;52.60;99534.95;1669324;85;21089;-82
2022/06/05 03:22:41;;;;;;;1.65;1.55;;;;;;;17.01;52.85;99537.52;1669837;85;21117;-82
2022/06/05 03:25:09;;;;;;;3.72;1.37;;;;;;;17.02;53.06;99534.38;1669378;85;21071;-82
2022/06/05 03:27:37;;;;;;;2.20;1.22;;;;;;;17.02;52.62;99536.55;1664949;85;21225;-83
2022/06/05 03:30:05;;;;;;;4.03;1.40;;;;;;;17.02;52.88;99532.56;1669568;85;21839;-79
2022/06/05 03:32:32;;;;;;;3.25;1.77;;;;;;;17.04;52.96;99526.67;1669842;85;21596;-82
2022/06/05 03:34:58;;;;;;;6.50;1.60;;;;;;;17.06;52.78;99530.56;1669648;83;21602;-82
2022/06/05 03:37:25;;;;;;;4.45;1.70;;;;;;;17.08;53.10;99529.54;1669439;85;21142;-81
2022/06/05 03:39:51;;;;;;;1.70;1.60;;;;;;;17.07;53.20;99527.82;1669839;85;21036;-83
2022/06/05 03:42:17;;;;;;;1.70;1.60;;;;;;;17.08;52.88;99526.04;1669778;85;21080;-83
2022/06/05 03:44:44;;;;;;;2.10;1.70;;;;;;;17.09;52.41;99529.91;1671888;85;21175;-82
2022/06/05 03:47:11;;;;;;;2.85;1.75;;;;;;;17.12;51.98;99525.38;1672591;85;21822;-81
2022/06/05 03:49:39;;;;;;;1.87;1.67;;;;;;;17.13;51.83;99531.05;1672371;85;21080;-83
2022/06/05 03:52:06;;;;;;;7.08;1.75;;;;;;;17.16;52.15;99538.84;1672321;84;21032;-81
2022/06/05 03:54:36;;;;;;;1.60;1.50;;;;;;;17.17;52.67;99541.41;1672812;85;21124;-83
2022/06/05 03:57:03;;;;;;;1.90;1.70;;;;;;;17.17;52.47;99544.06;1672740;85;21190;-82
2022/06/05 03:59:30;;;;;;;3.55;1.85;;;;;;;17.18;52.67;99542.25;1672555;85;22168;-80
2022/06/05 04:01:57;;;;;;;3.15;1.57;;;;;;;17.18;52.82;99543.58;1672994;85;21512;-83
2022/06/05 04:04:23;;;;;;;1.70;1.60;;;;;;;17.17;52.88;99548.54;1672509;85;21103;-82
2022/06/05 04:06:51;;;;;;;3.10;1.22;;;;;;;17.15;52.83;99551.77;1672814;85;21634;-84
2022/06/05 04:09:18;;;;;;;1.75;1.60;;;;;;;17.15;52.90;99553.10;1672751;85;21187;-83
2022/06/05 04:11:45;;;;;;;1.95;1.80;;;;;;;17.15;53.52;99554.43;1672796;85;21141;-83
2022/06/05 04:14:11;;;;;;;2.22;1.70;;;;;;;17.14;53.09;99550.05;1672548;85;21358;-83
2022/06/05 04:16:40;;;;;;;2.10;1.40;;;;;;;17.14;53.89;99550.89;1672641;85;21084;-82
2022/06/05 04:19:07;;;;;;;1.80;1.70;;;;;;;17.14;53.38;99553.55;1672919;85;21147;-81
2022/06/05 04:21:36;;;;;;;5.78;1.80;;;;;;;17.16;53.19;99554.80;1672712;85;21111;-83
2022/06/05 04:24:04;;;;;;;3.02;1.37;;;;;;;17.19;53.06;99558.60;1672816;85;21155;-83
2022/06/05 04:26:33;;;;;;;1.92;1.55;;;;;;;17.23;52.99;99556.12;1672681;85;21613;-84
2022/06/05 04:28:59;;;;;;;1.45;1.30;;;;;;;17.25;52.48;99548.92;1672804;85;21072;-82
2022/06/05 04:31:29;;;;;;;4.60;1.32;;;;;;;17.29;52.79;99557.08;1672677;85;21088;-82
2022/06/05 04:33:59;;;;;;;5.65;1.80;;;;;;;17.31;52.70;99560.49;1672725;85;21206;-82
2022/06/05 04:36:26;;;;;;;2.77;1.82;;;;;;;17.34;53.16;99562.97;1672830;85;21109;-83
2022/06/05 04:38:52;;;;;;;2.75;1.75;;;;;;;17.35;53.47;99559.37;1672598;85;21069;-81
2022/06/05 04:41:19;;;;;;;5.90;1.90;;;;;;;17.37;52.83;99565.44;1672792;85;21040;-82
2022/06/05 04:43:47;;;;;;;2.72;1.70;;;;;;;17.39;53.06;99571.52;1672854;85;21044;-83
2022/06/05 04:46:13;;;;;;;2.62;1.70;;;;;;;17.41;52.95;99577.59;1672713;85;21142;-82
2022/06/05 04:48:41;;;;;;;2.80;2.08;;;;;;;17.45;53.29;99576.47;1672863;85;21144;-82
2022/06/05 04:51:09;;;;;;;2.05;1.80;;;;;;;17.50;53.49;99580.63;1672963;85;21044;-79
2022/06/05 04:53:35;;;;;;;6.12;2.05;;;;;;;17.53;53.26;99592.41;1672823;85;21013;-83
2022/06/05 04:56:08;;;;;;;4.10;2.12;;;;;;;17.54;52.55;99600.78;1672994;85;21560;-82
2022/06/05 04:58:35;;;;;;;5.00;1.82;;;;;;;17.55;53.56;99606.02;1672702;85;21506;-82
2022/06/05 05:01:04;;;;;;;3.27;2.00;;;;;;;17.55;52.84;99607.34;1673127;85;21107;-83
2022/06/05 05:03:31;;;;;;;1.72;1.62;;;;;;;17.54;53.60;99618.08;1667864;85;21511;-82
2022/06/05 05:05:57;;;;;;;3.85;1.82;;;;;;;17.55;54.77;99627.75;1672465;85;21032;-83
2022/06/05 05:08:25;;;;;;;4.33;1.72;;;;;;;17.56;54.94;99628.14;1672630;85;21571;-83
2022/06/05 05:10:51;;;;;;;3.95;1.72;;;;;;;17.58;55.12;99624.42;1672580;85;21013;-84
2022/06/05 05:13:18;;;;;;;2.65;1.60;;;;;;;17.62;55.18;99625.11;1672919;85;21127;-82
2022/06/05 05:15:51;;;;;;;2.75;1.40;;;;;;;17.67;55.58;99623.02;1672625;85;21028;-84
2022/06/05 05:18:20;;;;;;;2.30;1.50;;;;;;;17.73;55.93;99621.77;1672548;85;21111;-81
2022/06/05 05:20:46;;;;;;;2.12;1.80;;;;;;;17.77;55.82;99621.48;1672796;85;21091;-83
2022/06/05 05:23:14;;;;;;;1.67;1.57;;;;;;;17.83;55.74;99627.73;1672554;85;21135;-83
2022/06/05 05:25:41;;;;;;;3.58;1.40;;;;;;;17.88;56.15;99619.98;1672750;85;21136;-82
2022/06/05 05:28:08;;;;;;;3.30;1.77;;;;;;;17.91;56.07;99620.64;1672793;85;21092;-82
2022/06/05 05:30:37;;;;;;;2.33;2.12;;;;;;;17.94;55.50;99629.77;1672452;85;21111;-81
2022/06/05 05:33:04;;;;;;;2.45;2.25;;;;;;;17.95;55.49;99631.95;1672688;85;21594;-82
2022/06/05 05:35:31;;;;;;;2.65;1.75;;;;;;;17.96;55.78;99633.19;1667211;85;21163;-82
2022/06/05 05:37:57;;;;;;;2.72;2.52;;;;;;;18.01;56.60;99631.56;1665305;86;21523;-84
2022/06/05 05:43:08;;;;;;;;;;;;;;;18.07;56.16;99635.18;1668044;84;21702;-83
2022/06/05 05:45:35;;;;;;;3.95;2.67;;;;;;;18.11;56.44;99640.67;1668338;84;20245;-82
2022/06/05 05:48:04;;;;;;;2.70;2.40;;;;;;;18.13;56.32;99636.09;1665362;85;21131;-84
2022/06/05 05:50:30;;;;;;;9.33;2.95;;;;;;;18.16;55.69;99637.23;1665600;86;21129;-83
2022/06/05 05:52:57;;;;;;;5.10;2.65;;;;;;;18.18;56.24;99637.98;1665304;86;21144;-84
2022/06/05 05:55:23;;;;;;;6.75;2.45;;;;;;;18.23;55.79;99639.52;1665168;86;21215;-83
2022/06/05 05:57:50;;;;;;;4.53;2.90;;;;;;;18.27;55.64;99637.02;1665494;85;21588;-83
2022/06/05 06:00:19;;;;;;;4.30;2.27;;;;;;;18.30;55.52;99634.16;1665411;86;21036;-82
2022/06/05 06:02:46;;;;;;;3.52;2.80;;;;;;;18.31;55.02;99635.89;1665459;86;22269;-82
2022/06/05 06:05:15;;;;;;;2.67;2.40;;;;;;;18.32;55.08;99627.77;1665051;86;21520;-82
2022/06/05 06:07:45;;;;;;;4.20;2.72;;;;;;;18.36;55.46;99628.45;1665500;85;21167;-83
2022/06/05 06:10:12;;;;;;;8.50;3.20;;;;;;;18.40;55.50;99621.11;1665263;85;21548;-79
2022/06/05 06:12:39;;;;;;;4.83;3.45;;;;;;;18.44;55.39;99614.16;1665305;86;21132;-83
2022/06/05 06:15:07;;;;;;;6.83;3.80;;;;;;;18.50;55.35;99612.40;1665297;86;21090;-82
2022/06/05 06:17:34;;;;;;;4.67;3.60;;;;;;;18.56;55.18;99608.49;1665306;86;21541;-82
2022/06/05 06:20:01;;;;;;;8.28;4.20;;;;;;;18.60;55.13;99607.80;1665612;86;21061;-83
2022/06/05 06:22:28;;;;;;;6.67;3.98;;;;;;;18.68;55.28;99609.48;1665384;85;21705;-83
2022/06/05 06:24:55;;;;;;;8.98;3.83;;;;;;;18.75;55.30;99613.44;1665468;86;21025;-84
2022/06/05 06:27:21;;;;;;;6.65;4.00;;;;;;;18.82;55.37;99606.73;1665037;86;21160;-83
2022/06/05 06:29:49;;;;;;;6.67;3.95;;;;;;;18.90;56.31;99615.09;1665113;86;21175;-83
2022/06/05 06:32:16;;;;;;;6.85;4.67;;;;;;;18.96;55.89;99614.31;1665302;85;21100;-85
2022/06/05 06:34:42;;;;;;;9.95;4.90;;;;;;;19.00;55.26;99612.67;1667411;85;21187;-82
2022/06/05 06:37:08;;;;;;;12.03;4.78;;;;;;;19.05;55.22;99610.55;1672434;85;21119;-83
2022/06/05 06:39:35;;;;;;;9.78;4.15;;;;;;;19.10;54.81;99617.75;1672275;85;22214;-82
2022/06/05 06:42:02;;;;;;;8.33;4.58;;;;;;;19.14;54.41;99610.39;1672120;85;21096;-83
2022/06/05 06:44:29;;;;;;;6.85;4.65;;;;;;;19.17;53.97;99616.84;1672702;85;21052;-82
2022/06/05 06:46:55;;;;;;;5.92;4.20;;;;;;;19.21;53.68;99619.66;1672483;85;21081;-84
2022/06/05 06:49:23;;;;;;;7.78;4.28;;;;;;;19.23;53.97;99616.44;1672666;85;21171;-85
2022/06/05 06:51:49;;;;;;;6.45;4.15;;;;;;;19.28;54.54;99611.64;1672652;85;21174;-83
2022/06/05 06:54:16;;;;;;;5.60;4.37;;;;;;;19.31;54.20;99615.39;1672665;85;21666;-83
2022/06/05 06:56:42;;;;;;;9.75;4.45;;;;;;;19.35;54.51;99609.39;1672395;85;21072;-83
2022/06/05 06:59:09;;;;;;;6.10;4.62;;;;;;;19.39;54.91;99615.36;1672520;85;21017;-82
2022/06/05 07:01:36;;;;;;;10.78;5.03;;;;;;;19.42;54.58;99608.48;1672451;85;21107;-85
2022/06/05 07:04:04;;;;;;;11.70;5.12;;;;;;;19.42;54.14;99612.00;1672549;85;21566;-83
2022/06/05 07:06:31;;;;;;;7.37;5.50;;;;;;;19.44;53.63;99618.56;1672421;85;21107;-83
2022/06/05 07:08:58;;;;;;;10.63;5.95;;;;;;;19.46;53.42;99613.97;1672514;85;21084;-84
2022/06/05 07:11:25;;;;;;;11.25;6.20;;;;;;;19.47;54.03;99614.35;1672959;85;21024;-81
2022/06/05 07:13:53;;;;;;;9.00;6.15;;;;;;;19.49;53.20;99620.43;1673170;85;21068;-83
2022/06/05 07:16:19;;;;;;;9.98;6.62;;;;;;;19.49;53.57;99627.10;1672811;85;21611;-82
2022/06/05 07:18:46;;;;;;;9.20;5.75;;;;;;;19.49;53.59;99621.77;1672895;85;21150;-83
2022/06/05 07:21:22;;;;;;;8.88;5.00;;;;;;;19.48;53.36;99619.59;1672692;85;21099;-84
2022/06/05 07:23:49;;;;;;;10.70;4.35;;;;;;;19.43;52.88;99608.38;1672634;85;22327;-83
2022/06/05 07:26:18;;;;;;;3.98;3.47;;;;;;;19.40;52.90;99611.72;1673125;85;21171;-84
2022/06/05 07:28:45;;;;;;;8.88;2.80;;;;;;;19.38;53.13;99616.31;1673102;85;21831;-82
2022/06/05 07:31:12;;;;;;;2.33;2.10;;;;;;;19.34;53.25;99618.84;1672857;85;21547;-84
2022/06/05 07:33:41;;;;;;;2.95;1.85;;;;;;;19.30;53.66;99615.05;1672891;85;21032;-83
2022/06/05 07:36:11;;;;;;;2.35;1.82;;;;;;;19.28;54.18;99622.30;1667223;85;20991;-83
2022/06/05 07:38:40;;;;;;;2.60;1.75;;;;;;;19.23;54.66;99620.44;1665627;86;21598;-85
2022/06/05 07:41:09;;;;;;;2.45;1.80;;;;;;;19.21;55.22;99622.82;1665407;85;21081;-82
2022/06/05 07:43:36;;;;;;;1.70;1.42;;;;;;;19.15;54.31;99629.44;1641514;86;21156;-83
2022/06/05 07:46:05;;;;;;;3.70;2.00;;;;;;;19.09;53.53;99633.84;1596543;86;21042;-84
2022/06/05 07:48:32;;;;;;;4.53;1.42;;;;;;;19.00;53.34;99631.33;1665783;86;21567;-83
2022/06/05 07:56:42;;;;;;;1.80;1.70;;;;;;;18.84;53.89;99631.50;1665440;86;21112;-83
2022/06/05 07:59:09;;;;;;;7.65;1.80;;;;;;;18.81;54.48;99629.03;1665684;86;21104;-83
2022/06/05 08:01:35;;;;;;;2.72;1.77;;;;;;;18.80;54.89;99623.31;1665311;86;21060;-81
2022/06/05 08:04:04;;;;;;;3.47;2.05;;;;;;;18.79;55.17;99631.41;1665626;85;21013;-82
2022/06/05 08:06:34;;;;;;;3.80;2.08;;;;;;;18.79;55.99;99624.75;1665509;86;21141;-83
2022/06/05 08:09:03;;;;;;;2.08;1.90;;;;;;;18.76;55.70;99623.12;1665491;86;21135;-82
2022/06/05 08:11:30;;;;;;;4.53;2.12;;;;;;;18.74;55.49;99623.26;1665392;85;21032;-83
2022/06/05 08:13:57;;;;;;;1.95;1.72;;;;;;;18.71;56.08;99619.46;1642552;86;21617;-82
2022/06/05 08:16:24;;;;;;;3.37;1.75;;;;;;;18.70;56.11;99616.41;1665476;85;21089;-81
2022/06/05 08:18:52;;;;;;;5.15;2.17;;;;;;;18.68;56.25;99611.66;1665814;86;21096;-83
2022/06/05 08:21:19;;;;;;;2.15;1.85;;;;;;;18.64;56.26;99608.81;1665306;86;21136;-83
2022/06/05 08:23:46;;;;;;;2.52;1.85;;;;;;;18.61;55.99;99612.16;1665490;86;21080;-84
2022/06/05 08:26:13;;;;;;;2.10;1.90;;;;;;;18.59;55.98;99612.75;1665321;86;21027;-81
2022/06/05 08:28:40;;;;;;;3.37;1.60;;;;;;;18.60;56.13;99622.47;1665403;86;21128;-84
2022/06/05 08:31:08;;;;;;;2.35;1.90;;;;;;;18.62;56.24;99612.55;1665797;86;21140;-82
2022/06/05 08:33:35;;;;;;;1.85;1.75;;;;;;;18.65;56.35;99613.69;1665159;86;21734;-85
2022/06/05 08:36:02;;;;;;;4.30;1.90;;;;;;;18.69;56.38;99619.17;1669081;84;22185;-81
2022/06/05 08:41:33;;;;;;;;;;;;;;;18.75;56.88;99621.44;1675141;85;21660;-82
2022/06/05 08:44:20;;;;;;;1.85;1.75;;;;;;;18.79;57.98;99618.92;1672638;85;21834;-84
2022/06/05 08:47:04;;;;;;;4.97;2.70;;;;;;;18.83;58.35;99620.94;1672945;85;21098;-85
2022/06/05 08:50:05;;;;;;;3.52;2.40;;;;;;;18.88;58.58;99620.18;1672756;85;21103;-82
2022/06/05 08:52:59;;;;;;;3.05;2.50;;;;;;;18.92;58.91;99615.84;1672666;85;21142;-84
2022/06/05 08:55:37;;;;;;;2.60;2.30;;;;;;;19.00;58.94;99621.16;1672984;85;21108;-83
2022/06/05 08:58:31;;;;;;;3.27;2.90;;;;;;;19.05;59.64;99615.88;1672687;85;39025;-83
2022/06/05 09:01:07;;;;;;;2.67;2.40;;;;;;;19.11;59.56;99614.59;1671714;85;21095;-84
2022/06/05 09:03:39;;;;;;;3.72;2.20;;;;;;;19.17;59.52;99625.34;1672791;85;21111;-82
2022/06/05 09:06:24;;;;;;;1.90;1.80;;;;;;;19.21;59.11;99623.66;1672381;85;21036;-84
2022/06/05 09:08:54;;;;;;;1.60;1.50;;;;;;;19.23;57.78;99631.56;1672910;85;21065;-83
2022/06/05 09:11:59;;;;;;;2.25;1.42;;;;;;;19.24;55.81;99631.46;1672659;85;21169;-83
2022/06/05 09:14:39;;;;;;;3.27;1.55;;;;;;;19.22;54.35;99634.72;1672512;85;21595;-83
2022/06/05 09:17:17;;;;;;;1.80;1.70;;;;;;;19.17;54.90;99639.52;1672543;85;21630;-84
2022/06/05 09:19:43;;;;;;;2.33;1.60;;;;;;;19.13;55.13;99640.67;1672616;85;21159;-85
2022/06/05 09:22:43;;;;;;;2.17;1.90;;;;;;;19.14;55.51;99645.55;1672756;85;21076;-84
2022/06/05 09:25:28;;;;;;;2.83;1.37;;;;;;;19.16;56.10;99645.80;1662505;85;21184;-85
2022/06/05 09:28:24;;;;;;;2.25;1.50;;;;;;;19.18;56.34;99646.58;1672642;85;21025;-83
2022/06/05 09:31:05;;;;;;;1.70;1.60;;;;;;;19.21;55.95;99642.34;1672938;85;21112;-84
2022/06/05 09:33:36;;;;;;;1.40;1.30;;;;;;;19.25;56.58;99649.19;1672284;85;21100;-81
2022/06/05 09:36:07;;;;;;;1.50;1.40;;;;;;;19.27;56.29;99647.27;1644466;85;21123;-85
2022/06/05 09:38:57;;;;;;;1.45;1.35;;;;;;;19.33;55.91;99647.80;1666946;84;21730;-82
2022/06/05 09:41:46;;;;;;;1.47;1.37;;;;;;;19.37;55.81;99653.31;1665193;86;21111;-80
2022/06/05 09:44:59;;;;;;;1.47;1.35;;;;;;;19.41;55.50;99649.46;1665358;86;21183;-82
2022/06/05 09:47:44;;;;;;;3.58;1.40;;;;;;;19.47;55.79;99649.05;1665593;86;21103;-83
2022/06/05 09:50:25;;;;;;;1.75;1.40;;;;;;;19.54;56.02;99653.47;1665253;86;21096;-82
2022/06/05 09:52:52;;;;;;;3.65;1.37;;;;;;;19.57;55.57;99651.44;1665432;85;23149;-83
2022/06/05 09:55:21;;;;;;;1.60;1.37;;;;;;;19.59;55.32;99652.18;1665334;86;21076;-82
2022/06/05 10:00:51;;;;;;;3.90;1.40;;;;;;;19.55;54.33;99649.37;1665290;85;21214;-83
2022/06/05 10:03:21;;;;;;;6.97;1.30;;;;;;;19.56;55.27;99653.72;1665576;86;22010;-83
2022/06/05 10:06:27;;;;;;;2.27;1.30;;;;;;;19.56;54.48;99653.72;1665230;86;22191;-83
2022/06/05 10:09:11;;;;;;;1.20;1.20;;;;;;;19.53;54.51;99655.27;1665724;86;21653;-84
2022/06/05 10:11:44;;;;;;;2.42;1.60;;;;;;;19.56;54.89;99649.72;1665276;86;21155;-83
2022/06/05 10:14:50;;;;;;;1.80;1.52;;;;;;;19.63;55.59;99650.99;1665235;86;21104;-83
2022/06/05 10:17:44;;;;;;;1.37;1.25;;;;;;;19.72;55.83;99645.97;1665469;86;21069;-85
2022/06/05 10:20:47;;;;;;;3.15;1.50;;;;;;;19.80;55.32;99652.99;1665572;86;21175;-84
2022/06/05 10:23:25;;;;;;;3.17;1.50;;;;;;;19.87;54.06;99651.62;1665244;86;21029;-83
2022/06/05 10:26:17;;;;;;;1.98;1.60;;;;;;;19.91;53.82;99642.41;1646816;86;21623;-85
2022/06/05 10:28:45;;;;;;;1.67;1.10;;;;;;;19.98;53.73;99649.01;1665419;86;21175;-83
2022/06/05 10:31:26;;;;;;;2.80;1.60;;;;;;;20.05;53.42;99653.43;1665397;86;21117;-84
2022/06/05 10:34:18;;;;;;;1.40;1.30;;;;;;;20.12;53.81;99651.17;1664386;86;21203;-83
2022/06/05 10:37:05;;;;;;;2.72;1.07;;;;;;;20.20;53.04;99649.64;1665157;85;21482;-84
2022/06/05 10:40:14;;;;;;;1.77;1.12;;;;;;;20.28;52.07;99655.78;1659371;85;21429;-84
2022/06/05 10:42:58;;;;;;;1.70;1.40;;;;;;;20.36;52.05;99657.41;1673088;85;21077;-83
2022/06/05 10:45:49;;;;;;;4.22;1.55;;;;;;;20.47;51.84;99655.77;1673690;85;21150;-83
2022/06/05 10:48:37;;;;;;;1.22;1.12;;;;;;;20.58;52.11;99650.50;1673467;85;21587;-83
2022/06/05 10:51:27;;;;;;;5.10;1.27;;;;;;;20.68;50.68;99655.55;1673130;85;21079;-83
2022/06/05 10:53:59;;;;;;;2.58;1.32;;;;;;;20.80;51.17;99655.12;1673699;85;21552;-84
2022/06/05 10:56:47;;;;;;;1.85;1.50;;;;;;;20.91;51.39;99651.63;1673266;85;21599;-85
2022/06/05 10:59:38;;;;;;;2.12;1.42;;;;;;;20.98;50.79;99652.89;1669385;85;21091;-83
2022/06/05 11:02:57;;;;;;;6.20;1.10;;;;;;;21.05;50.70;99654.12;1673504;85;22252;-85
2022/06/05 11:05:54;;;;;;;1.22;1.12;;;;;;;21.17;50.36;99659.52;1673296;85;21120;-83
2022/06/05 11:08:45;;;;;;;1.22;1.07;;;;;;;21.30;50.00;99659.78;1673706;85;21092;-83
2022/06/05 11:14:51;;;;;;;1.95;1.10;;;;;;;21.45;49.19;99657.75;1673527;85;21650;-86
2022/06/05 11:17:57;;;;;;;3.40;1.10;;;;;;;21.57;49.08;99655.09;1673587;85;21062;-85
2022/06/05 11:20:26;;;;;;;4.40;1.20;;;;;;;21.67;47.79;99657.41;1615419;88;21074;-83
2022/06/05 11:23:02;;;;;;;2.95;0.78;;;;;;;21.75;47.70;99654.98;1660226;85;21107;-83
2022/06/05 11:25:37;;;;;;;2.50;2.30;;;;;;;21.84;47.71;99650.75;1674758;85;21080;-80
2022/06/05 11:28:34;;;;;;;2.02;1.40;;;;;;;21.89;46.55;99646.72;1677934;85;21028;-79
2022/06/05 11:31:32;;;;;;;1.17;1.07;;;;;;;21.91;46.02;99650.63;1676663;85;21128;-79
2022/06/05 11:34:25;;;;;;;1.12;1.02;;;;;;;21.98;46.21;99653.66;1650166;85;21093;-84
2022/06/05 11:37:11;;;;;;;3.40;1.60;;;;;;;22.09;45.99;99652.32;1676862;83;21051;-84
2022/06/05 11:40:02;;;;;;;2.10;0.90;;;;;;;22.21;46.34;99650.48;1653312;84;20973;-80
2022/06/05 11:42:48;;;;;;;3.00;0.70;;;;;;;22.33;44.97;99647.32;1621118;87;21146;-81
2022/06/05 11:45:33;;;;;;;0.85;0.70;;;;;;;22.47;43.57;99648.36;1668991;86;21149;-83
2022/06/05 11:48:22;;;;;;;2.35;0.70;;;;;;;22.60;43.35;99645.03;1669453;86;21014;-82
2022/06/05 11:51:11;;;;;;;3.37;0.88;;;;;;;22.79;43.51;99645.69;1669652;86;21041;-82
2022/06/05 11:53:49;;;;;;;0.88;0.70;;;;;;;22.98;43.88;99646.35;1669337;86;21512;-81
2022/06/05 11:56:50;;;;;;;1.42;0.93;;;;;;;23.12;42.98;99639.00;1669728;86;20998;-85
2022/06/05 11:59:40;;;;;;;1.05;0.60;;;;;;;23.21;42.39;99647.59;1669511;86;21128;-84
2022/06/05 12:02:15;;;;;;;1.02;0.80;;;;;;;23.29;41.87;99650.48;1669702;86;21073;-83
2022/06/05 12:05:17;;;;;;;2.52;0.70;;;;;;;23.42;41.29;99654.31;1669872;86;21057;-82
2022/06/05 12:07:45;;;;;;;1.32;0.80;;;;;;;23.54;41.12;99655.08;1662843;86;21116;-85
2022/06/05 12:10:24;;;;;;;1.10;0.85;;;;;;;23.66;40.82;99657.20;1666444;86;21037;-84
2022/06/05 12:13:14;;;;;;;0.95;0.80;;;;;;;23.66;40.88;99652.66;1666585;86;21484;-85
2022/06/05 12:16:00;;;;;;;1.25;1.10;;;;;;;23.67;40.91;99658.41;1666475;86;21075;-86
2022/06/05 12:19:02;;;;;;;1.00;0.80;;;;;;;23.65;39.73;99653.64;1666339;86;21481;-84
2022/06/05 12:21:47;;;;;;;1.57;0.70;;;;;;;23.63;40.48;99650.23;1662500;86;21062;-84
2022/06/05 12:24:45;;;;;;;2.85;1.00;;;;;;;23.66;40.46;99655.34;1684164;84;21076;-86
2022/06/05 12:27:16;;;;;;;1.85;0.75;;;;;;;23.68;40.37;99655.22;1624344;85;22271;-85
2022/06/05 12:30:05;;;;;;;1.98;0.90;;;;;;;23.68;40.74;99655.22;1616087;88;21077;-83
2022/06/05 12:32:42;;;;;;;1.62;0.65;;;;;;;23.69;40.54;99652.41;1646821;86;21037;-85